Asbury, Missouri
Current Conditions -  °F | °C
As of 7:53 AM on Monday 20 Oct 2014 (Local Time) from KJLN Reporting Station
Overcast Overcast  
Wind Chill: 58°   Ceiling: 4900
Heat Index: 58°   Visibility: 10mi
Dew Point: 52°   Wind: 7mph
Humidity: 81%   Direction: 210°SSW
Pressure: 30.06"   Gusts: NA
Location:  37.27°N, 94.61°W
Report Text: KJLN 201253Z 21006KT 10SM BKN049 OVC060 14/11 A3006 RMK AO2 SLP174 T01440111
Loading
Personal Weather Stations






























Interactive Weather Map New forecast layout! Learn more

10-Day Weather Forecast

Advertisements
Track Severe Weather on mobile